EDDWEETN

Guest
Details From EDDW - Bremen
To EETN - Tallinn
Flight Number -
Tags Generated
Created
Modified
Stats Distance 656 nm / 1,215 km
Max Altitude 0 ft / 0 m
Waypoints 5
Social Downloads 0
Likes 0
Share VATSIM

Download

Looking for another format? Having issues loading an existing format? Contact us
Advertisement - Login to hide

Notes

Generated

Route

EDDW REPRO VSB TLL22 EETN

ID Type Via Altitude Latitude Longitude Leg Dist Tot Dist Heading (true) Name
O EDDW APT - 0 ft / 0 m 53.04257˚ 8.78424˚ - 0 nm - -
REPRO FIX - 0 ft / 0 m 55.38442˚ 13.10491˚ 206 nm 206 nm 45° / 49° -
VSB VOR - 0 ft / 0 m 57.65953˚ 18.34686˚ 220 nm 427 nm 50° / 54° VISBY VOR-DME
TLL22 FIX - 0 ft / 0 m 59.30907˚ 24.39259˚ 213 nm 641 nm 60° / 65° -
O EETN APT - 0 ft / 0 m 59.41332˚ 24.80581˚ 14 nm 655 nm 63° / 64° -

Altitude Profile

Advertisement - Login to hide

Weather


0- 5 10 15 20 25 30 35+ Temperature / ° C

Clouds and Precipitation
Forecast for 2018-05-21 00:00 UTC. Updated 38 minutes ago

Ground ~20,000 ft ~40,000 ft Winds

EDDW

Details ICAO EDDW (BRE)
Name Bremen
Region Germany - Civil
Timezone Europe/Berlin (UTC+2.0)
Stats Elevation 14 ft / 4 m (AMSL)
Location 53.045715° 8.789003°
Runways 2
Magnetic Variation 2.464° E

METAR

EDDW 202320Z AUTO 07007KT 9999 // NCD 11/04 Q1023

Decode

TAF

TAF EDDW 202300Z 2100/2124 08008KT CAVOK BECMG 2107/2109 10013KT PROB30 TEMPO 2111/2116 11015G25KT BECMG 2116/2118 08008KT

Decode

Departure Runways

ID Width Length Bearing (true) Bearing (mag) Surface Threshold Offset Overrun Length
05 75 ft / 23 m 2,298 ft / 700 m 51.18° 48.72° Asphalt 0 ft / 0 m 0 ft / 0 m
09 151 ft / 46 m 8,616 ft / 2,626 m 87.78° 85.32° Asphalt 945 ft / 288 m 0 ft / 0 m
23 75 ft / 23 m 2,298 ft / 700 m 231.19° 228.73° Asphalt 0 ft / 0 m 0 ft / 0 m
27 151 ft / 46 m 8,616 ft / 2,626 m 267.82° 265.36° Asphalt 984 ft / 300 m 0 ft / 0 m

EETN

Details ICAO EETN (TLL)
Name TALLINN
Region Estonia
Timezone Europe/Tallinn (UTC+3.0)
Stats Elevation 131 ft / 40 m (AMSL)
Location 59.413257° 24.832803°
Runways 1
Magnetic Variation 8.702° E

METAR

EETN 202320Z 20002KT CAVOK 08/05 Q1028

Decode

TAF

TAF EETN 202323Z 2100/2124 VRB02KT CAVOK BECMG 2109/2111 30010KT BECMG 2116/2118 VRB02KT

Decode

Destination Runways

ID Width Length Bearing (true) Bearing (mag) Surface Threshold Offset Overrun Length
08 148 ft / 45 m 10,023 ft / 3,055 m 90.24° 81.54° Asphalt 820 ft / 250 m 0 ft / 0 m
26 148 ft / 45 m 10,023 ft / 3,055 m 270.28° 261.58° Asphalt 0 ft / 0 m 184 ft / 56 m

Approach Navaids

Runway Type Ident Frequency Range Bearing (true) Bearing (mag) Slope Elevation
08 Localiser IIB 111.70 MHz 18 nm / 33 km 90.33° 81.63° - 131 ft / 40 m (AMSL)
08 Glidescope IIB 111.70 MHz 10 nm / 19 km 90.26° 81.56° 3.00° 131 ft / 40 m (AMSL)
26 Localiser ILK 110.30 MHz 18 nm / 33 km 270.24° 261.54° - 131 ft / 40 m (AMSL)
26 Glidescope ILK 110.30 MHz 10 nm / 19 km 270.26° 261.56° 3.00° 131 ft / 40 m (AMSL)

Popular Alternatives